createdAt,value
2022-11-28T00:00:53.918Z,81.30
2022-11-28T00:05:57.314Z,81.10
2022-11-28T00:11:04.772Z,80.80
2022-11-28T00:16:10.045Z,81.10
2022-11-28T00:21:15.322Z,80.80
2022-11-28T00:26:22.162Z,80.60
2022-11-28T00:31:26.790Z,80.90
2022-11-28T00:36:30.865Z,80.60
2022-11-28T00:41:35.804Z,80.90
2022-11-28T00:46:39.213Z,80.80
2022-11-28T00:51:42.642Z,80.70
2022-11-28T00:56:47.426Z,80.80
2022-11-28T01:01:50.858Z,80.60
2022-11-28T01:06:54.263Z,80.70
2022-11-28T01:11:59.108Z,80.60
2022-11-28T01:17:02.502Z,80.50
2022-11-28T01:22:06.572Z,80.60
2022-11-28T01:27:11.380Z,80.10
2022-11-28T01:32:14.773Z,80.30
2022-11-28T01:37:18.169Z,80.30
2022-11-28T01:42:23.015Z,80.10
2022-11-28T01:47:29.402Z,80.60
2022-11-28T01:52:32.816Z,80.30
2022-11-28T01:57:37.702Z,80.50
2022-11-28T02:02:43.857Z,80.10
2022-11-28T02:07:48.241Z,80.20
2022-11-28T02:13:04.770Z,80.20
2022-11-28T02:18:18.651Z,80.30
2022-11-28T02:23:25.724Z,79.90
2022-11-28T02:28:45.226Z,80.20
2022-11-28T02:33:51.602Z,80.10
2022-11-28T02:39:00.510Z,80.20
2022-11-28T02:44:10.438Z,80.10
2022-11-28T02:49:20.022Z,80.00
2022-11-28T02:54:23.654Z,80.50
2022-11-28T02:59:35.125Z,80.40
2022-11-28T03:04:46.304Z,80.70
2022-11-28T03:10:08.893Z,80.70
2022-11-28T03:15:13.697Z,80.70
2022-11-28T03:20:23.043Z,81.00
2022-11-28T03:25:29.725Z,81.00
2022-11-28T03:30:41.540Z,80.90
2022-11-28T03:35:48.397Z,81.00
2022-11-28T03:40:54.768Z,80.90
2022-11-28T03:46:00.732Z,81.20
2022-11-28T03:51:09.298Z,81.00
2022-11-28T03:56:16.268Z,81.10
2022-11-28T04:01:28.967Z,81.10
2022-11-28T04:06:38.965Z,80.90
2022-11-28T04:11:46.943Z,81.20
2022-11-28T04:16:54.350Z,80.90
2022-11-28T04:22:02.546Z,81.00
2022-11-28T04:27:08.786Z,80.80
2022-11-28T04:32:13.149Z,80.80
2022-11-28T04:37:19.100Z,80.70
2022-11-28T04:42:26.041Z,80.80
2022-11-28T04:47:29.983Z,80.50
2022-11-28T04:52:38.000Z,80.40
2022-11-28T04:57:43.301Z,80.50
2022-11-28T05:02:48.061Z,80.10
2022-11-28T05:07:53.327Z,80.40
2022-11-28T05:12:56.862Z,80.20
2022-11-28T05:18:00.396Z,79.90
2022-11-28T05:23:05.453Z,80.00
2022-11-28T05:28:10.333Z,80.00
2022-11-28T05:33:13.820Z,80.10
2022-11-28T05:38:18.966Z,79.80
2022-11-28T05:43:22.499Z,79.80
2022-11-28T05:48:26.359Z,80.00
2022-11-28T05:53:31.179Z,80.00
2022-11-28T05:58:34.677Z,79.80
2022-11-28T06:03:38.237Z,79.70
2022-11-28T06:08:43.552Z,79.90
2022-11-28T06:13:47.931Z,79.60
2022-11-28T06:18:54.394Z,79.80
2022-11-28T06:24:00.625Z,79.90
2022-11-28T06:29:04.541Z,79.40
2022-11-28T06:34:08.020Z,79.80
2022-11-28T06:39:15.494Z,79.70
2022-11-28T06:44:19.117Z,79.90
2022-11-28T06:49:22.835Z,79.70
2022-11-28T06:54:27.780Z,79.90
2022-11-28T06:59:31.301Z,79.60
2022-11-28T07:04:34.842Z,79.60
2022-11-28T07:09:39.872Z,79.30
2022-11-28T07:14:43.542Z,79.50
2022-11-28T07:35:23.674Z,79.80
2022-11-28T07:40:27.284Z,79.40
2022-11-28T07:45:53.515Z,79.50
2022-11-28T07:50:56.629Z,79.80
2022-11-28T07:56:03.787Z,79.90
2022-11-28T08:01:10.907Z,80.00
2022-11-28T08:06:17.260Z,79.80
2022-11-28T08:11:23.169Z,80.20
2022-11-28T08:16:29.060Z,80.50
2022-11-28T08:21:35.730Z,80.40
2022-11-28T08:26:39.796Z,80.60
2022-11-28T08:31:43.579Z,80.50
2022-11-28T08:36:49.281Z,80.60
2022-11-28T08:41:52.980Z,80.90
2022-11-28T08:46:56.479Z,80.60
2022-11-28T08:52:01.402Z,80.90
2022-11-28T08:57:04.905Z,80.80
2022-11-28T09:02:10.443Z,81.00
2022-11-28T09:07:15.435Z,81.10
2022-11-28T09:12:19.274Z,81.50
2022-11-28T09:17:22.847Z,81.80
2022-11-28T09:22:30.153Z,81.50
2022-11-28T09:27:33.675Z,81.30
2022-11-28T09:32:37.546Z,81.00
2022-11-28T09:37:42.478Z,81.00
2022-11-28T09:42:47.155Z,80.90
2022-11-28T09:47:53.212Z,80.80
2022-11-28T09:53:00.693Z,80.90
2022-11-28T09:58:07.850Z,81.00
2022-11-28T10:03:34.320Z,81.10
2022-11-28T10:08:46.512Z,80.50
2022-11-28T10:14:11.199Z,80.70
2022-11-28T10:19:46.124Z,80.80
2022-11-28T10:24:46.343Z,80.50
2022-11-28T10:29:54.208Z,80.20
2022-11-28T10:35:01.675Z,80.10
2022-11-28T10:40:18.611Z,79.70
2022-11-28T10:45:28.368Z,79.40
2022-11-28T10:50:37.971Z,79.40
2022-11-28T10:55:47.966Z,79.40
2022-11-28T11:00:54.525Z,79.40
2022-11-28T11:05:58.151Z,79.60
2022-11-28T11:11:05.651Z,79.60
2022-11-28T11:16:12.458Z,79.50
2022-11-28T11:21:18.095Z,79.90
2022-11-28T11:26:26.679Z,79.60
2022-11-28T11:31:33.130Z,79.70
2022-11-28T11:36:38.222Z,80.10
2022-11-28T11:41:44.325Z,80.00
2022-11-28T11:46:52.631Z,79.30
2022-11-28T11:51:58.029Z,79.70
2022-11-28T11:57:31.553Z,79.90
2022-11-28T12:02:31.718Z,78.20
2022-11-28T12:07:40.237Z,79.10
2022-11-28T12:12:45.292Z,78.50
2022-11-28T12:17:59.593Z,78.60
2022-11-28T12:23:13.015Z,78.80
2022-11-28T12:28:35.627Z,79.20
2022-11-28T12:33:46.960Z,79.10
2022-11-28T12:39:02.133Z,79.10
2022-11-28T12:44:14.306Z,78.60
2022-11-28T12:49:19.973Z,79.10
2022-11-28T12:54:41.322Z,77.60
2022-11-28T12:59:51.649Z,77.30
2022-11-28T13:05:05.411Z,76.60
2022-11-28T13:10:15.115Z,76.30
2022-11-28T13:15:25.039Z,76.10
2022-11-28T13:20:32.149Z,76.20
2022-11-28T13:25:41.538Z,76.60
2022-11-28T13:30:50.100Z,77.20
2022-11-28T13:35:54.394Z,78.10
2022-11-28T13:41:01.033Z,78.50
2022-11-28T13:46:08.529Z,79.40
2022-11-28T13:51:23.996Z,78.80
2022-11-28T13:56:30.567Z,79.50
2022-11-28T14:01:44.800Z,79.70
2022-11-28T14:06:49.887Z,79.90
2022-11-28T14:12:08.369Z,80.10
2022-11-28T14:17:29.778Z,79.30
2022-11-28T14:22:48.303Z,79.20
2022-11-28T14:27:55.054Z,79.80
2022-11-28T14:33:02.237Z,79.70
2022-11-28T14:38:42.434Z,80.30
2022-11-28T14:43:46.740Z,80.60
2022-11-28T14:49:15.729Z,80.90
2022-11-28T14:54:22.867Z,81.40
2022-11-28T14:59:29.026Z,81.30
2022-11-28T15:04:52.535Z,82.50
2022-11-28T15:10:07.016Z,81.80
2022-11-28T15:15:13.921Z,81.90
2022-11-28T15:20:22.378Z,81.90
2022-11-28T15:25:27.915Z,81.80
2022-11-28T15:30:31.413Z,82.30
2022-11-28T15:35:36.325Z,81.90
2022-11-28T15:40:39.843Z,82.00
2022-11-28T15:45:43.493Z,82.10
2022-11-28T15:50:52.596Z,82.50
2022-11-28T15:56:11.608Z,82.40
2022-11-28T16:01:19.978Z,82.40
2022-11-28T16:06:26.444Z,82.10
2022-11-28T16:11:31.123Z,82.30
2022-11-28T16:16:35.936Z,82.70
2022-11-28T16:21:45.611Z,82.70
2022-11-28T16:26:56.097Z,82.50
2022-11-28T16:32:08.718Z,82.70
2022-11-28T16:37:14.136Z,82.40
2022-11-28T16:42:20.436Z,82.30
2022-11-28T16:47:28.799Z,82.40
2022-11-28T16:52:52.450Z,82.50
2022-11-28T16:58:00.939Z,82.40
2022-11-28T17:03:09.043Z,82.30
2022-11-28T17:08:16.576Z,79.70
2022-11-28T17:13:20.031Z,78.30
2022-11-28T17:18:23.605Z,79.00
2022-11-28T17:23:28.538Z,76.60
2022-11-28T17:28:32.010Z,75.30
2022-11-28T17:33:38.389Z,75.40
2022-11-28T17:38:45.382Z,75.10
2022-11-28T17:43:49.039Z,74.40
2022-11-28T17:48:52.605Z,72.70
2022-11-28T17:53:57.473Z,75.10
2022-11-28T17:59:01.257Z,75.80
2022-11-28T18:04:05.464Z,75.80
2022-11-28T18:09:12.476Z,75.80
2022-11-28T18:14:19.524Z,75.90
2022-11-28T18:19:23.329Z,76.00
2022-11-28T18:24:28.218Z,75.80
2022-11-28T18:29:31.838Z,76.10
2022-11-28T18:34:35.264Z,76.10
2022-11-28T18:39:40.098Z,76.20
2022-11-28T18:44:43.564Z,76.10
2022-11-28T18:49:47.099Z,76.20
2022-11-28T18:54:52.070Z,76.30
2022-11-28T18:59:55.927Z,76.30
2022-11-28T19:04:59.644Z,76.40
2022-11-28T19:10:04.692Z,76.60
2022-11-28T19:15:08.789Z,76.60
2022-11-28T19:20:13.511Z,76.70
2022-11-28T19:25:18.540Z,76.50
2022-11-28T19:30:22.214Z,76.60
2022-11-28T19:35:25.716Z,76.80
2022-11-28T19:40:30.614Z,76.90
2022-11-28T19:45:34.158Z,76.70
2022-11-28T19:50:37.928Z,77.00
2022-11-28T19:55:43.266Z,76.90
2022-11-28T20:00:46.786Z,77.00
2022-11-28T20:05:50.354Z,76.80
2022-11-28T20:10:55.209Z,77.00
2022-11-28T20:16:03.433Z,77.00
2022-11-28T20:21:08.065Z,77.00
2022-11-28T20:26:14.062Z,76.90
2022-11-28T20:31:19.699Z,76.90
2022-11-28T20:36:24.680Z,76.80
2022-11-28T20:41:29.952Z,76.90
2022-11-28T20:46:35.854Z,76.80
2022-11-28T20:51:39.508Z,77.00
2022-11-28T20:57:19.693Z,77.10
2022-11-28T21:02:09.026Z,77.00
2022-11-28T21:07:12.650Z,77.20
2022-11-28T21:12:20.940Z,76.90
2022-11-28T21:17:24.791Z,77.10
2022-11-28T21:22:28.266Z,77.10
2022-11-28T21:27:33.184Z,77.10
2022-11-28T21:32:36.645Z,77.10
2022-11-28T21:37:40.156Z,77.10
2022-11-28T21:42:45.026Z,77.20
2022-11-28T21:47:48.539Z,77.00
2022-11-28T21:52:51.923Z,77.20
2022-11-28T21:57:56.810Z,77.00
2022-11-28T22:03:05.737Z,76.90
2022-11-28T22:08:12.053Z,76.90
2022-11-28T22:13:16.909Z,77.10
2022-11-28T22:18:20.369Z,77.10
2022-11-28T22:23:23.820Z,77.00
2022-11-28T22:28:28.699Z,77.00
2022-11-28T22:33:32.090Z,76.90
2022-11-28T22:38:35.820Z,76.80
2022-11-28T22:43:40.852Z,77.00
2022-11-28T22:48:44.407Z,77.10
2022-11-28T22:53:47.859Z,77.00
2022-11-28T22:58:52.902Z,77.10
2022-11-28T23:03:57.066Z,77.00
2022-11-28T23:09:01.762Z,77.10
2022-11-28T23:14:07.071Z,76.80
2022-11-28T23:19:13.528Z,76.90
2022-11-28T23:24:18.774Z,77.00
2022-11-28T23:29:23.619Z,77.10
2022-11-28T23:34:27.140Z,76.90
2022-11-28T23:39:30.524Z,76.90
2022-11-28T23:44:35.293Z,77.10
2022-11-28T23:49:38.666Z,77.10
2022-11-28T23:54:42.306Z,77.10
2022-11-28T23:59:47.256Z,77.00
